Time;durP1;ratioP1;P1;durP2;ratioP2;P2;SDS_P1;SDS_P2;PMS_P1;PMS_P2;Temp;Humidity;BMP_temperature;BMP_pressure;BME280_temperature;BME280_humidity;BME280_pressure;Samples;Min_cycle;Max_cycle;Signal;HPM_P1;HPM_P2
2022/07/28 00:00:35;;;;;;;11.38;5.10;;;25.00;99.90;;;;;;6178508;23;20076;-71
2022/07/28 00:03:01;;;;;;;9.60;4.50;;;24.90;99.90;;;;;;6151987;23;20009;-71
2022/07/28 00:05:27;;;;;;;12.63;4.70;;;25.00;99.90;;;;;;6163191;23;20005;-71
2022/07/28 00:07:53;;;;;;;13.80;4.55;;;25.00;99.90;;;;;;6177526;23;20021;-71
2022/07/28 00:10:18;;;;;;;12.25;4.75;;;25.00;99.90;;;;;;6113891;23;20350;-70
2022/07/28 00:12:45;;;;;;;10.05;4.22;;;25.00;99.90;;;;;;6178680;23;20013;-71
2022/07/28 00:15:11;;;;;;;11.18;5.07;;;25.00;99.90;;;;;;6177773;23;20009;-71
2022/07/28 00:17:37;;;;;;;8.27;3.90;;;24.90;99.90;;;;;;6152690;23;20456;-72
2022/07/28 00:20:05;;;;;;;8.25;4.40;;;24.90;99.90;;;;;;6152988;23;20040;-72
2022/07/28 00:22:32;;;;;;;12.15;4.57;;;24.80;99.90;;;;;;6180088;23;20019;-72
2022/07/28 00:24:58;;;;;;;10.82;4.78;;;24.80;99.90;;;;;;6153586;23;20096;-71
2022/07/28 00:27:25;;;;;;;11.50;4.82;;;24.80;99.90;;;;;;6152896;23;20330;-71
2022/07/28 00:29:51;;;;;;;10.10;4.85;;;24.80;99.90;;;;;;6179279;23;20029;-71
2022/07/28 00:32:19;;;;;;;12.00;4.70;;;24.80;99.90;;;;;;6179167;23;20013;-71
2022/07/28 00:34:45;;;;;;;9.38;4.45;;;24.80;99.90;;;;;;6153059;23;20084;-71
2022/07/28 00:37:11;;;;;;;11.25;4.97;;;24.80;99.90;;;;;;6151672;23;20089;-72
2022/07/28 00:39:37;;;;;;;12.20;5.03;;;24.80;99.90;;;;;;6179702;23;20457;-71
2022/07/28 00:42:04;;;;;;;10.02;4.80;;;24.70;99.90;;;;;;6115733;23;20017;-73
2022/07/28 00:44:30;;;;;;;10.63;4.57;;;24.80;99.90;;;;;;6178812;23;20610;-72
2022/07/28 00:46:56;;;;;;;10.52;4.32;;;24.70;99.90;;;;;;6147903;23;20008;-71
2022/07/28 00:49:21;;;;;;;10.02;4.70;;;24.70;99.90;;;;;;6207799;23;20025;-71
2022/07/28 00:51:47;;;;;;;12.02;4.75;;;24.70;99.90;;;;;;6160698;23;20013;-71
2022/07/28 00:54:13;;;;;;;15.02;5.07;;;24.70;99.90;;;;;;6152255;23;20379;-71
2022/07/28 00:56:39;;;;;;;11.60;4.38;;;24.70;99.90;;;;;;6180067;23;20017;-70
2022/07/28 00:59:06;;;;;;;9.80;4.53;;;24.70;99.90;;;;;;6178009;23;20388;-71
2022/07/28 01:01:32;;;;;;;9.68;4.60;;;24.70;99.90;;;;;;6153314;23;20489;-70
2022/07/28 01:04:00;;;;;;;9.57;4.63;;;24.70;99.90;;;;;;6164169;23;20066;-70
2022/07/28 01:06:54;;;;;;;14.00;4.72;;;24.80;99.90;;;;;;6152052;23;20417;-71
2022/07/28 01:09:57;;;;;;;11.13;4.93;;;24.70;99.90;;;;;;6151296;23;20027;-71
2022/07/28 01:12:46;;;;;;;12.65;5.05;;;24.80;99.90;;;;;;6151393;23;20109;-72
2022/07/28 01:15:25;;;;;;;9.18;4.60;;;24.80;99.90;;;;;;6131287;23;20016;-71
2022/07/28 01:18:04;;;;;;;8.90;4.70;;;24.80;99.90;;;;;;6154393;23;20489;-71
2022/07/28 01:20:36;;;;;;;13.68;4.78;;;24.80;99.90;;;;;;6152071;23;20085;-70
2022/07/28 01:23:11;;;;;;;11.00;4.80;;;24.80;99.90;;;;;;6179106;23;20394;-71
2022/07/28 01:26:26;;;;;;;11.70;4.30;;;24.80;99.90;;;;;;6180591;23;20012;-71
2022/07/28 01:29:44;;;;;;;12.13;4.85;;;24.80;99.90;;;;;;6153953;23;20047;-71
2022/07/28 01:32:24;;;;;;;10.13;4.65;;;24.70;99.90;;;;;;6126647;23;20025;-70
2022/07/28 01:34:56;;;;;;;9.23;4.50;;;24.80;99.90;;;;;;6179984;23;20040;-71
2022/07/28 01:37:29;;;;;;;10.23;4.43;;;24.80;99.90;;;;;;6178632;23;20400;-71
2022/07/28 01:39:58;;;;;;;12.18;4.55;;;24.70;99.90;;;;;;6180725;23;20020;-70
2022/07/28 01:42:31;;;;;;;10.07;4.60;;;24.80;99.90;;;;;;6178723;23;20009;-71
2022/07/28 01:44:58;;;;;;;;;;;24.80;99.90;;;;;;6155308;23;20013;-71
2022/07/28 01:47:28;;;;;;;9.32;4.60;;;24.80;99.90;;;;;;6177967;23;20344;-71
2022/07/28 01:49:57;;;;;;;9.07;4.53;;;24.80;99.90;;;;;;6153826;23;20578;-70
2022/07/28 01:52:25;;;;;;;7.38;4.10;;;24.80;99.90;;;;;;6153813;23;20866;-71
2022/07/28 01:54:52;;;;;;;9.60;4.70;;;24.80;99.90;;;;;;6153956;23;20097;-71
2022/07/28 01:57:20;;;;;;;11.18;4.97;;;24.80;99.90;;;;;;6178741;23;20181;-71
2022/07/28 01:59:47;;;;;;;14.95;5.03;;;24.80;99.90;;;;;;6154155;23;20428;-70
2022/07/28 02:02:17;;;;;;;10.23;4.70;;;24.80;99.90;;;;;;6152315;23;20009;-71
2022/07/28 02:04:47;;;;;;;10.68;4.93;;;24.80;99.90;;;;;;6124952;23;20017;-71
2022/07/28 02:07:14;;;;;;;11.65;5.13;;;24.70;99.90;;;;;;6151172;23;20492;-71
2022/07/28 02:09:44;;;;;;;10.13;4.72;;;24.70;99.90;;;;;;6131977;23;20009;-71
2022/07/28 02:12:13;;;;;;;9.95;4.80;;;24.80;99.90;;;;;;6151518;23;20120;-71
2022/07/28 02:14:41;;;;;;;13.68;5.13;;;24.80;99.90;;;;;;6164267;23;20009;-71
2022/07/28 02:17:15;;;;;;;11.95;5.00;;;24.80;99.90;;;;;;6177472;23;20005;-71
2022/07/28 02:19:43;;;;;;;11.95;4.68;;;24.80;99.90;;;;;;6153165;23;20496;-71
2022/07/28 02:22:10;;;;;;;9.70;4.70;;;24.80;99.90;;;;;;6178947;23;20008;-71
2022/07/28 02:24:39;;;;;;;10.82;5.07;;;24.80;99.90;;;;;;6128357;23;20532;-71
2022/07/28 02:27:10;;;;;;;15.60;5.35;;;24.80;99.90;;;;;;6150558;23;20013;-71
2022/07/28 02:29:46;;;;;;;12.30;4.60;;;24.80;99.90;;;;;;6153369;23;20318;-72
2022/07/28 02:32:31;;;;;;;9.80;5.13;;;24.80;99.90;;;;;;6176193;23;20024;-70
2022/07/28 02:35:09;;;;;;;13.20;4.97;;;24.80;99.90;;;;;;6163344;23;20349;-71
2022/07/28 02:37:40;;;;;;;11.63;5.32;;;24.80;99.90;;;;;;6198622;22;20013;-71
2022/07/28 02:40:12;;;;;;;9.82;4.78;;;24.80;99.90;;;;;;6177403;23;20353;-71
2022/07/28 02:42:39;;;;;;;;;;;24.80;99.90;;;;;;6179461;23;20392;-70
2022/07/28 02:45:08;;;;;;;10.30;5.30;;;24.80;99.90;;;;;;6179273;23;19935;-71
2022/07/28 02:47:42;;;;;;;11.50;4.65;;;24.70;99.90;;;;;;6153161;23;20484;-71
2022/07/28 02:50:09;;;;;;;19.52;6.20;;;24.70;99.90;;;;;;6151428;23;20002;-71
2022/07/28 02:52:41;;;;;;;13.18;5.50;;;24.70;99.90;;;;;;6179459;23;20088;-69
2022/07/28 02:55:11;;;;;;;12.98;5.20;;;24.70;99.90;;;;;;6150576;23;20085;-70
2022/07/28 02:57:39;;;;;;;13.02;5.28;;;24.80;99.90;;;;;;6150907;23;20088;-71
2022/07/28 03:00:06;;;;;;;14.02;5.05;;;24.80;99.90;;;;;;6150831;23;20330;-70
2022/07/28 03:02:35;;;;;;;12.45;5.07;;;24.80;99.90;;;;;;6152692;23;20436;-71
2022/07/28 03:05:03;;;;;;;13.18;5.20;;;24.70;99.90;;;;;;6151995;23;20056;-71
2022/07/28 03:07:31;;;;;;;10.88;5.15;;;24.70;99.90;;;;;;6179012;23;20009;-71
2022/07/28 03:09:59;;;;;;;11.82;4.60;;;24.70;99.90;;;;;;6152278;23;20005;-71
2022/07/28 03:12:26;;;;;;;12.52;5.25;;;24.70;99.90;;;;;;6150773;23;20092;-70
2022/07/28 03:14:52;;;;;;;10.30;4.90;;;24.70;99.90;;;;;;6152972;23;20001;-70
2022/07/28 03:17:18;;;;;;;12.32;5.30;;;24.60;99.90;;;;;;6151051;23;20067;-70
2022/07/28 03:19:45;;;;;;;11.07;5.47;;;24.60;99.90;;;;;;6178825;23;20024;-71
2022/07/28 03:22:11;;;;;;;10.52;5.22;;;24.60;99.90;;;;;;6149905;23;20013;-71
2022/07/28 03:24:41;;;;;;;13.85;5.63;;;24.50;99.90;;;;;;6151910;23;20009;-70
2022/07/28 03:27:23;;;;;;;14.65;5.65;;;24.50;99.90;;;;;;6149492;23;20017;-71
2022/07/28 03:30:01;;;;;;;;;;;24.60;99.90;;;;;;6180044;23;20009;-70
2022/07/28 03:32:30;;;;;;;12.25;4.90;;;24.70;99.90;;;;;;6189908;23;19908;-72
2022/07/28 03:34:57;;;;;;;10.93;4.97;;;24.70;99.90;;;;;;6178533;23;20009;-71
2022/07/28 03:37:30;;;;;;;11.90;4.68;;;24.80;99.90;;;;;;6175937;23;20836;-71
2022/07/28 03:39:58;;;;;;;12.73;4.60;;;24.90;99.90;;;;;;6177753;23;20020;-71
2022/07/28 03:42:26;;;;;;;13.65;5.13;;;24.90;99.90;;;;;;6149783;23;20093;-71
2022/07/28 03:44:52;;;;;;;10.57;5.10;;;24.90;99.90;;;;;;6178316;23;20020;-71
2022/07/28 03:47:23;;;;;;;10.25;4.95;;;24.90;99.90;;;;;;6176457;23;20018;-70
2022/07/28 03:49:49;;;;;;;10.60;4.80;;;24.90;99.90;;;;;;6152698;23;20009;-71
2022/07/28 03:52:17;;;;;;;15.15;4.97;;;24.80;99.90;;;;;;6150948;23;20012;-70
2022/07/28 03:54:44;;;;;;;9.63;4.50;;;24.80;99.90;;;;;;6179683;23;20009;-70
2022/07/28 03:57:10;;;;;;;12.43;5.43;;;24.80;99.90;;;;;;6153493;23;20011;-71
2022/07/28 03:59:35;;;;;;;14.48;5.50;;;24.90;99.90;;;;;;6154051;23;20025;-71
2022/07/28 04:02:01;;;;;;;13.27;5.30;;;24.90;99.90;;;;;;6153285;23;20063;-70
2022/07/28 04:04:27;;;;;;;18.50;5.07;;;24.90;99.90;;;;;;6180249;23;20040;-70
2022/07/28 04:06:53;;;;;;;9.20;4.75;;;25.00;99.90;;;;;;6179899;23;20013;-70
2022/07/28 04:09:19;;;;;;;12.80;5.05;;;25.00;99.90;;;;;;6151988;23;20079;-70
2022/07/28 04:11:45;;;;;;;11.43;5.07;;;25.10;99.90;;;;;;6180367;23;20070;-70
2022/07/28 04:14:11;;;;;;;12.38;5.15;;;25.10;99.90;;;;;;6179193;23;20025;-70
2022/07/28 04:16:36;;;;;;;12.68;5.00;;;25.10;99.90;;;;;;6180434;23;20434;-71
2022/07/28 04:19:02;;;;;;;14.18;4.93;;;25.10;99.90;;;;;;6182010;23;20504;-71
2022/07/28 04:21:28;;;;;;;10.93;5.25;;;25.10;99.90;;;;;;6179736;23;20017;-71
2022/07/28 04:23:54;;;;;;;9.98;5.25;;;25.10;99.90;;;;;;6130063;23;20009;-71
2022/07/28 04:26:19;;;;;;;11.98;5.10;;;25.10;99.90;;;;;;6153047;23;20023;-71
2022/07/28 04:28:45;;;;;;;11.35;5.22;;;25.10;99.90;;;;;;6152741;23;20088;-70
2022/07/28 04:31:11;;;;;;;13.00;5.28;;;25.00;99.90;;;;;;6179797;23;20055;-71
2022/07/28 04:33:38;;;;;;;14.70;5.95;;;25.00;99.90;;;;;;6152609;23;20013;-70
2022/07/28 04:36:04;;;;;;;18.58;5.85;;;25.00;99.90;;;;;;6178622;23;20504;-70
2022/07/28 04:38:29;;;;;;;11.88;5.32;;;25.00;99.90;;;;;;6138684;23;20037;-71
2022/07/28 04:40:56;;;;;;;13.27;5.28;;;25.00;99.90;;;;;;6153123;23;20075;-72
2022/07/28 04:43:22;;;;;;;11.98;5.65;;;25.00;99.90;;;;;;6179059;23;20142;-71
2022/07/28 04:45:49;;;;;;;15.95;6.20;;;25.10;99.90;;;;;;6181072;23;20009;-71
2022/07/28 04:48:16;;;;;;;11.90;5.55;;;25.10;99.90;;;;;;6178273;23;20013;-71
2022/07/28 04:50:44;;;;;;;12.60;5.80;;;25.10;99.90;;;;;;6153369;23;20516;-71
2022/07/28 04:53:11;;;;;;;13.85;5.22;;;25.10;99.90;;;;;;6151572;23;20013;-70
2022/07/28 04:55:38;;;;;;;11.32;5.57;;;25.20;99.90;;;;;;6180150;23;20011;-71
2022/07/28 04:58:06;;;;;;;11.15;4.97;;;25.20;99.90;;;;;;6178801;23;20040;-71
2022/07/28 05:00:33;;;;;;;14.05;5.10;;;25.20;99.90;;;;;;6179611;23;20013;-72
2022/07/28 05:03:01;;;;;;;12.75;5.45;;;25.20;99.90;;;;;;6153347;23;20023;-70
2022/07/28 05:05:27;;;;;;;17.52;5.88;;;25.20;99.90;;;;;;6179309;23;20330;-71
2022/07/28 05:07:53;;;;;;;12.15;5.28;;;25.20;99.90;;;;;;6179719;23;20057;-71
2022/07/28 05:10:19;;;;;;;13.93;5.72;;;25.20;99.90;;;;;;6130659;23;20326;-71
2022/07/28 05:12:46;;;;;;;12.20;5.10;;;25.30;99.90;;;;;;6139020;23;20009;-71
2022/07/28 05:15:12;;;;;;;10.88;5.82;;;25.20;99.90;;;;;;6151374;23;20035;-70
2022/07/28 05:17:38;;;;;;;13.88;5.80;;;25.20;99.90;;;;;;6152757;23;20036;-72
2022/07/28 05:20:05;;;;;;;12.18;5.70;;;25.30;99.90;;;;;;6151133;23;20401;-70
2022/07/28 05:22:45;;;;;;;14.88;5.72;;;25.30;99.90;;;;;;6180081;23;20811;-71
2022/07/28 05:25:16;;;;;;;12.38;5.80;;;25.30;99.90;;;;;;6151089;23;20086;-71
2022/07/28 05:27:43;;;;;;;11.77;6.40;;;25.40;99.90;;;;;;6152636;23;20017;-70
2022/07/28 05:30:10;;;;;;;11.43;5.88;;;25.40;99.90;;;;;;6178248;23;20402;-70
2022/07/28 05:32:36;;;;;;;13.80;6.10;;;25.40;99.90;;;;;;6179172;23;20013;-73
2022/07/28 05:35:02;;;;;;;13.88;6.18;;;25.40;99.90;;;;;;6178386;23;20045;-71
2022/07/28 05:37:28;;;;;;;12.38;5.95;;;25.50;99.90;;;;;;6178957;23;20326;-71
2022/07/28 05:39:54;;;;;;;18.80;6.32;;;25.50;99.90;;;;;;6152964;23;20016;-70
2022/07/28 05:42:19;;;;;;;15.02;6.88;;;25.40;99.90;;;;;;6178491;23;20088;-73
2022/07/28 05:44:45;;;;;;;14.30;5.93;;;25.40;99.90;;;;;;6179601;23;20005;-71
2022/07/28 05:47:11;;;;;;;11.98;5.97;;;25.40;99.90;;;;;;6152003;23;20009;-71
2022/07/28 05:49:37;;;;;;;14.75;6.38;;;25.40;99.90;;;;;;6179389;23;20020;-70
2022/07/28 05:52:03;;;;;;;14.77;6.35;;;25.40;99.90;;;;;;6151081;23;20033;-73
2022/07/28 05:54:29;;;;;;;11.02;6.03;;;25.40;99.90;;;;;;6179121;23;20020;-70
2022/07/28 05:56:54;;;;;;;14.60;6.78;;;25.40;99.90;;;;;;6179986;23;20013;-71
2022/07/28 05:59:20;;;;;;;13.77;6.13;;;25.40;99.90;;;;;;6178237;23;20445;-71
2022/07/28 06:01:46;;;;;;;12.40;5.75;;;25.40;99.90;;;;;;6152359;23;20013;-71
2022/07/28 06:04:12;;;;;;;17.02;7.32;;;25.40;99.90;;;;;;6177488;23;20021;-71
2022/07/28 06:06:37;;;;;;;14.35;6.20;;;25.30;99.90;;;;;;6152288;23;20480;-71
2022/07/28 06:09:03;;;;;;;14.77;6.50;;;25.30;99.90;;;;;;6177556;23;20040;-71
2022/07/28 06:11:29;;;;;;;14.00;7.13;;;25.20;99.90;;;;;;6178793;23;20926;-71
2022/07/28 06:13:55;;;;;;;15.15;6.82;;;25.10;99.90;;;;;;6179321;23;20009;-71
2022/07/28 06:16:21;;;;;;;14.90;6.75;;;25.10;99.90;;;;;;6177789;23;20021;-70
2022/07/28 06:18:49;;;;;;;21.85;6.80;;;25.10;99.90;;;;;;6179473;23;20016;-70
2022/07/28 06:21:15;;;;;;;21.83;8.40;;;25.10;99.90;;;;;;6151575;23;20067;-70
2022/07/28 06:23:40;;;;;;;19.25;9.65;;;25.10;99.90;;;;;;6179053;23;20044;-71
2022/07/28 06:26:06;;;;;;;14.57;6.22;;;25.20;99.90;;;;;;6150903;23;20009;-72
2022/07/28 06:28:32;;;;;;;15.90;6.85;;;25.20;99.90;;;;;;6179533;23;20021;-71
2022/07/28 06:30:58;;;;;;;11.18;6.20;;;25.20;99.90;;;;;;6178611;23;20013;-71
2022/07/28 06:33:24;;;;;;;11.63;5.82;;;25.20;99.90;;;;;;6177753;23;20076;-71
2022/07/28 06:35:50;;;;;;;13.52;6.32;;;25.10;99.90;;;;;;6178729;23;20019;-71
2022/07/28 06:38:16;;;;;;;15.43;6.55;;;25.10;99.90;;;;;;6177435;23;20013;-71
2022/07/28 06:40:42;;;;;;;14.80;5.93;;;25.10;99.90;;;;;;6178730;23;20029;-73
2022/07/28 06:43:08;;;;;;;12.38;6.25;;;25.10;99.90;;;;;;6177058;23;20001;-71
2022/07/28 06:45:33;;;;;;;14.30;6.38;;;25.20;99.90;;;;;;6178440;23;20013;-71
2022/07/28 06:48:00;;;;;;;12.85;6.18;;;25.20;99.90;;;;;;6179197;23;20036;-71
2022/07/28 06:50:26;;;;;;;12.23;6.30;;;25.20;99.90;;;;;;6177728;23;20029;-71
2022/07/28 06:52:56;;;;;;;18.90;6.85;;;25.00;99.90;;;;;;6150600;23;20013;-71
2022/07/28 06:55:22;;;;;;;17.85;7.40;;;24.90;99.90;;;;;;6177754;23;20851;-71
2022/07/28 06:57:48;;;;;;;13.13;6.55;;;24.80;99.90;;;;;;6151178;23;20040;-71
2022/07/28 07:00:14;;;;;;;12.45;6.43;;;24.70;99.90;;;;;;6177384;23;20761;-71
2022/07/28 07:02:41;;;;;;;15.15;6.32;;;24.70;99.90;;;;;;6178900;23;20013;-70
2022/07/28 07:05:08;;;;;;;17.30;6.72;;;24.70;99.90;;;;;;6150553;23;20040;-71
2022/07/28 07:07:34;;;;;;;11.93;6.05;;;24.70;99.90;;;;;;6177835;23;20017;-71
2022/07/28 07:09:59;;;;;;;17.90;6.93;;;24.70;99.90;;;;;;6177566;23;20013;-70
2022/07/28 07:12:25;;;;;;;15.82;6.75;;;24.80;99.90;;;;;;6176945;23;20645;-71
2022/07/28 07:14:52;;;;;;;17.25;6.63;;;24.80;99.90;;;;;;6178161;23;20009;-70
2022/07/28 07:17:18;;;;;;;18.35;6.38;;;24.80;99.90;;;;;;6176893;23;20020;-71
2022/07/28 07:19:44;;;;;;;13.25;6.65;;;24.80;99.90;;;;;;6178867;23;20472;-72
2022/07/28 07:22:13;;;;;;;12.75;6.70;;;24.80;99.90;;;;;;6177075;23;20017;-71
2022/07/28 07:24:39;;;;;;;17.42;7.15;;;24.90;99.90;;;;;;6178153;23;20005;-70
2022/07/28 07:27:05;;;;;;;14.45;6.30;;;24.90;99.90;;;;;;6176994;23;20162;-70
2022/07/28 07:29:31;;;;;;;15.75;7.05;;;24.90;99.90;;;;;;6152375;23;20013;-69
2022/07/28 07:31:57;;;;;;;16.80;7.00;;;24.90;99.90;;;;;;6152136;23;20013;-71
2022/07/28 07:34:23;;;;;;;13.02;6.25;;;24.90;99.90;;;;;;6151356;23;20021;-70
2022/07/28 07:36:49;;;;;;;13.50;6.38;;;24.80;99.90;;;;;;6177878;23;20009;-71
2022/07/28 07:39:14;;;;;;;16.58;6.85;;;24.80;99.90;;;;;;6177747;23;20013;-71
2022/07/28 07:41:41;;;;;;;19.27;7.20;;;24.80;99.90;;;;;;6175804;23;20071;-71
2022/07/28 07:44:08;;;;;;;14.85;6.90;;;24.80;99.90;;;;;;6175448;23;20021;-71
2022/07/28 07:46:37;;;;;;;17.65;7.18;;;24.90;99.90;;;;;;6152405;23;20005;-72
2022/07/28 07:49:03;;;;;;;22.48;7.18;;;24.90;99.90;;;;;;6149869;23;20036;-70
2022/07/28 07:51:28;;;;;;;14.75;6.85;;;24.90;99.90;;;;;;6151624;23;20381;-70
2022/07/28 07:53:54;;;;;;;19.15;8.05;;;24.90;99.90;;;;;;6177600;23;20013;-70
2022/07/28 07:56:20;;;;;;;17.50;8.50;;;24.90;99.90;;;;;;6169746;23;20096;-70
2022/07/28 07:58:45;;;;;;;18.88;9.05;;;24.90;99.90;;;;;;6144719;23;20317;-69
2022/07/28 08:01:12;;;;;;;20.45;8.75;;;24.80;99.90;;;;;;6175352;23;20017;-70
2022/07/28 08:03:38;;;;;;;23.50;8.55;;;24.70;99.90;;;;;;6172529;23;20044;-71
2022/07/28 08:06:04;;;;;;;16.95;8.80;;;24.70;99.90;;;;;;6149841;23;20013;-71
2022/07/28 08:08:30;;;;;;;20.17;8.32;;;24.90;99.90;;;;;;6166701;23;20514;-70
2022/07/28 08:10:56;;;;;;;16.75;8.60;;;24.90;99.90;;;;;;6177520;23;20017;-71
2022/07/28 08:13:22;;;;;;;16.27;7.93;;;25.00;99.90;;;;;;6146421;23;20442;-70
2022/07/28 08:15:49;;;;;;;25.55;8.27;;;25.00;99.90;;;;;;6147820;23;20020;-70
2022/07/28 08:18:14;;;;;;;13.65;7.47;;;25.00;99.90;;;;;;6170777;23;20023;-71
2022/07/28 08:20:40;;;;;;;17.77;8.32;;;25.00;99.90;;;;;;6144648;23;20661;-71
2022/07/28 08:23:06;;;;;;;14.05;7.18;;;25.10;99.90;;;;;;6145820;23;20013;-70
2022/07/28 08:25:35;;;;;;;17.15;7.35;;;25.10;99.90;;;;;;6169758;23;20029;-71
2022/07/28 08:28:01;;;;;;;17.23;7.60;;;25.20;99.90;;;;;;6146611;23;20032;-71
2022/07/28 08:30:27;;;;;;;15.13;7.82;;;25.30;99.90;;;;;;6157346;23;20602;-70
2022/07/28 08:32:53;;;;;;;14.15;7.80;;;25.30;99.90;;;;;;6145185;23;20032;-70
2022/07/28 08:35:19;;;;;;;18.40;7.72;;;25.30;99.90;;;;;;6145348;23;20453;-71
2022/07/28 08:37:45;;;;;;;15.70;8.10;;;25.60;99.90;;;;;;6173280;23;20009;-71
2022/07/28 08:40:14;;;;;;;13.27;7.38;;;26.10;99.90;;;;;;6145235;23;20100;-71
2022/07/28 08:42:58;;;;;;;11.27;6.75;;;26.60;99.90;;;;;;6146965;23;20052;-71
2022/07/28 08:45:25;;;;;;;19.02;7.18;;;28.20;99.90;;;;;;6148520;23;20063;-73
2022/07/28 08:47:53;;;;;;;13.38;6.95;;;29.70;99.90;;;;;;6173964;23;20021;-73
2022/07/28 08:50:23;;;;;;;14.93;6.35;;;30.70;99.90;;;;;;6174411;23;20155;-73
2022/07/28 08:52:52;;;;;;;11.63;5.85;;;31.00;99.90;;;;;;6134304;23;20009;-74
2022/07/28 08:55:26;;;;;;;13.55;5.95;;;31.90;99.90;;;;;;6149135;23;20092;-72
2022/07/28 08:57:55;;;;;;;11.05;4.97;;;32.70;99.90;;;;;;6179133;23;20048;-72
2022/07/28 09:00:22;;;;;;;9.35;4.90;;;33.20;99.90;;;;;;6151550;23;20014;-73
2022/07/28 09:02:50;;;;;;;11.85;4.95;;;33.70;99.90;;;;;;6179046;23;20029;-71
2022/07/28 09:05:18;;;;;;;14.55;5.40;;;33.60;99.90;;;;;;6174701;23;20021;-73
2022/07/28 09:07:49;;;;;;;10.77;4.68;;;32.80;99.90;;;;;;6148246;23;20020;-73
2022/07/28 09:10:17;;;;;;;10.35;4.78;;;33.30;99.90;;;;;;6146112;23;20009;-73
2022/07/28 09:12:43;;;;;;;15.23;4.85;;;34.10;99.90;;;;;;6173396;23;20432;-72
2022/07/28 09:15:13;;;;;;;11.55;4.00;;;34.30;99.90;;;;;;6173558;23;20492;-73
2022/07/28 09:17:40;;;;;;;10.27;4.00;;;32.60;99.90;;;;;;6145545;23;20417;-72
2022/07/28 09:20:07;;;;;;;10.00;3.60;;;32.10;99.90;;;;;;6146009;23;20015;-72
2022/07/28 09:22:34;;;;;;;7.55;3.55;;;31.90;99.90;;;;;;6149631;23;20031;-73
2022/07/28 09:25:02;;;;;;;7.90;3.72;;;32.50;99.90;;;;;;6177510;23;20086;-73
2022/07/28 09:27:58;;;;;;;6.57;3.33;;;32.50;99.90;;;;;;6177388;23;20009;-72
2022/07/28 09:30:32;;;;;;;8.43;3.63;;;33.30;99.90;;;;;;6152935;23;20059;-72
2022/07/28 09:33:17;;;;;;;7.15;3.33;;;34.00;99.90;;;;;;6171728;23;20013;-72
2022/07/28 09:35:52;;;;;;;9.63;4.10;;;34.90;99.90;;;;;;6182300;23;20013;-72
2022/07/28 09:38:20;;;;;;;12.13;4.45;;;32.70;99.90;;;;;;6171730;23;20024;-71
2022/07/28 09:41:05;;;;;;;8.90;3.90;;;33.40;99.90;;;;;;6175205;23;20040;-72
2022/07/28 09:43:38;;;;;;;10.43;3.28;;;34.20;99.90;;;;;;6143753;23;20487;-71
2022/07/28 09:46:15;;;;;;;8.27;3.47;;;33.90;99.90;;;;;;6172560;23;20519;-72
2022/07/28 09:48:51;;;;;;;5.78;2.83;;;33.90;99.90;;;;;;6173568;23;20119;-71
2022/07/28 09:51:19;;;;;;;7.50;2.90;;;33.80;99.90;;;;;;6146385;23;20016;-72
2022/07/28 09:53:45;;;;;;;6.03;3.20;;;33.70;99.90;;;;;;6178312;23;20009;-72
2022/07/28 09:56:12;;;;;;;11.65;3.28;;;33.90;99.90;;;;;;6150266;23;20021;-71
2022/07/28 09:58:39;;;;;;;7.00;2.70;;;33.90;99.20;;;;;;6152090;23;20510;-72
2022/07/28 10:01:07;;;;;;;5.22;2.70;;;34.10;98.60;;;;;;6179114;23;20044;-72
2022/07/28 10:03:35;;;;;;;5.57;3.00;;;34.50;98.30;;;;;;6202042;23;20032;-71
2022/07/28 10:06:07;;;;;;;7.63;3.25;;;34.00;98.60;;;;;;6175088;23;20695;-71
2022/07/28 10:08:46;;;;;;;7.45;3.05;;;33.20;99.20;;;;;;6203730;23;20032;-72
2022/07/28 10:11:17;;;;;;;5.90;3.38;;;34.00;99.40;;;;;;6175829;23;20047;-71
2022/07/28 10:14:03;;;;;;;5.63;2.88;;;33.80;99.70;;;;;;6157601;23;20012;-70
2022/07/28 10:16:52;;;;;;;5.90;2.90;;;33.40;99.90;;;;;;6176302;23;20314;-71
2022/07/28 10:19:18;;;;;;;8.68;2.60;;;33.40;99.90;;;;;;6180996;23;20012;-72
2022/07/28 10:21:45;;;;;;;7.35;2.92;;;33.20;99.90;;;;;;6207729;22;20030;-72
2022/07/28 10:24:20;;;;;;;4.72;2.53;;;33.70;99.90;;;;;;6205325;23;20025;-71
2022/07/28 10:26:47;;;;;;;9.50;2.90;;;33.00;99.90;;;;;;6181019;23;20004;-71
2022/07/28 10:29:15;;;;;;;7.20;2.60;;;32.50;99.90;;;;;;6207820;23;20020;-71
2022/07/28 10:32:03;;;;;;;7.70;3.05;;;33.00;99.90;;;;;;6208903;22;20035;-72
2022/07/28 10:34:43;;;;;;;7.07;2.88;;;33.60;99.90;;;;;;6181948;23;20096;-72
2022/07/28 10:37:17;;;;;;;5.95;3.05;;;33.90;99.90;;;;;;6184827;22;20104;-71
2022/07/28 10:39:50;;;;;;;8.10;3.25;;;33.30;99.90;;;;;;6210134;23;20019;-72
2022/07/28 10:42:19;;;;;;;8.70;3.63;;;32.10;99.90;;;;;;6144460;23;20768;-71
2022/07/28 10:44:46;;;;;;;13.65;3.75;;;31.80;99.90;;;;;;6152737;23;20047;-72
2022/07/28 10:47:13;;;;;;;7.28;3.63;;;30.90;99.90;;;;;;6126991;23;20095;-71
2022/07/28 10:49:41;;;;;;;7.95;3.40;;;30.90;99.90;;;;;;6178471;23;20024;-72
2022/07/28 10:52:08;;;;;;;7.35;3.08;;;30.70;99.90;;;;;;6127665;23;20018;-72
2022/07/28 10:54:42;;;;;;;11.63;4.10;;;31.00;99.90;;;;;;6153368;23;20020;-71
2022/07/28 10:57:11;;;;;;;12.30;3.90;;;31.10;99.90;;;;;;6177711;23;20013;-72
2022/07/28 11:00:15;;;;;;;11.73;4.93;;;30.40;99.90;;;;;;6131608;23;20023;-71
2022/07/28 11:02:52;;;;;;;10.07;4.07;;;30.70;99.90;;;;;;6187813;23;20096;-71
2022/07/28 11:05:32;;;;;;;11.93;4.90;;;30.70;99.90;;;;;;6178546;23;20474;-71
2022/07/28 11:08:07;;;;;;;13.27;5.10;;;30.20;99.90;;;;;;6153181;23;20024;-72
2022/07/28 11:11:02;;;;;;;13.32;5.10;;;30.00;99.90;;;;;;6162963;23;20016;-73
2022/07/28 11:13:34;;;;;;;12.38;5.30;;;30.00;99.90;;;;;;6121975;23;20334;-72
2022/07/28 11:16:13;;;;;;;8.38;4.35;;;30.30;99.90;;;;;;6153191;23;20009;-71
2022/07/28 11:19:07;;;;;;;11.57;4.20;;;30.40;99.90;;;;;;6187718;23;20016;-72
2022/07/28 11:21:34;;;;;;;10.48;3.53;;;30.50;99.90;;;;;;6178351;23;20139;-72
2022/07/28 11:24:00;;;;;;;13.07;3.47;;;30.20;99.90;;;;;;6151888;23;20345;-72
2022/07/28 11:26:34;;;;;;;10.18;3.50;;;30.40;99.90;;;;;;6150634;23;20275;-72
2022/07/28 11:29:03;;;;;;;11.70;3.67;;;30.50;99.90;;;;;;6178590;23;20210;-72
2022/07/28 11:31:44;;;;;;;11.77;3.92;;;30.50;99.90;;;;;;6151062;23;20112;-71
2022/07/28 11:34:15;;;;;;;10.43;3.25;;;30.80;99.90;;;;;;6151281;23;20013;-72
2022/07/28 11:37:06;;;;;;;9.38;3.78;;;30.30;99.90;;;;;;6151806;23;20024;-71
2022/07/28 11:39:36;;;;;;;8.20;3.53;;;30.10;99.90;;;;;;6178102;23;20064;-71
2022/07/28 11:42:23;;;;;;;8.32;3.47;;;30.30;99.90;;;;;;6151154;23;20009;-72
2022/07/28 11:44:51;;;;;;;9.20;3.13;;;29.90;99.90;;;;;;6150871;23;20299;-73
2022/07/28 11:47:19;;;;;;;14.07;3.20;;;30.30;99.90;;;;;;6151361;23;20035;-72
2022/07/28 11:50:05;;;;;;;10.77;3.20;;;30.20;99.90;;;;;;6151613;23;20075;-72
2022/07/28 11:52:31;;;;;;;10.98;3.25;;;30.10;99.90;;;;;;6178015;23;20013;-70
2022/07/28 11:54:57;;;;;;;7.18;3.50;;;30.50;99.90;;;;;;6152395;23;20009;-72
2022/07/28 11:57:25;;;;;;;8.45;3.13;;;30.50;99.90;;;;;;6151768;23;20314;-71
2022/07/28 11:59:53;;;;;;;13.70;3.70;;;30.10;99.90;;;;;;6176023;23;20103;-71
2022/07/28 12:02:21;;;;;;;8.40;2.90;;;30.20;99.90;;;;;;6173486;23;20021;-72
2022/07/28 12:04:59;;;;;;;9.68;3.70;;;30.00;99.90;;;;;;6172739;23;20021;-70
2022/07/28 12:07:33;;;;;;;10.10;3.65;;;29.90;99.90;;;;;;6173846;23;20013;-71
2022/07/28 12:10:00;;;;;;;11.00;3.55;;;30.20;99.90;;;;;;6127561;23;20017;-71
2022/07/28 12:12:26;;;;;;;6.97;3.17;;;30.70;99.90;;;;;;6145693;23;20020;-71
2022/07/28 12:14:54;;;;;;;13.57;3.90;;;31.00;99.90;;;;;;6127491;23;20175;-71
2022/07/28 12:17:21;;;;;;;9.45;3.25;;;30.60;99.90;;;;;;6154045;23;20009;-72
2022/07/28 12:19:47;;;;;;;9.82;3.40;;;31.00;99.90;;;;;;6153557;23;20013;-72
2022/07/28 12:22:13;;;;;;;10.25;4.22;;;31.60;99.90;;;;;;6178377;23;20013;-72
2022/07/28 12:24:39;;;;;;;10.68;3.67;;;31.30;99.90;;;;;;6153919;23;20020;-73
2022/07/28 12:27:05;;;;;;;10.90;4.43;;;31.90;99.90;;;;;;6152729;23;20854;-73
2022/07/28 12:29:31;;;;;;;11.27;3.85;;;32.50;99.90;;;;;;6153037;23;20314;-72
2022/07/28 12:32:03;;;;;;;13.57;3.67;;;32.70;99.90;;;;;;6153327;23;20058;-71
2022/07/28 12:34:30;;;;;;;9.98;3.35;;;33.00;99.90;;;;;;6164429;23;20032;-72
2022/07/28 12:37:00;;;;;;;8.93;3.17;;;33.10;99.90;;;;;;6152074;23;20341;-72
2022/07/28 12:39:29;;;;;;;10.35;3.15;;;33.20;99.90;;;;;;6178113;23;20013;-72
2022/07/28 12:42:10;;;;;;;8.27;3.03;;;33.20;99.90;;;;;;6178962;23;20017;-71
2022/07/28 12:44:47;;;;;;;8.68;3.10;;;32.30;99.90;;;;;;6178650;23;20013;-72
2022/07/28 12:47:16;;;;;;;8.52;2.90;;;32.40;99.90;;;;;;6151313;23;20066;-71
2022/07/28 12:49:43;;;;;;;10.65;3.60;;;31.80;99.90;;;;;;6178939;23;20032;-71
2022/07/28 12:52:19;;;;;;;11.10;4.15;;;32.90;99.90;;;;;;6151653;23;20014;-71